createdAt,value
2017-12-15T00:00:41.991Z,30.63
2017-12-15T00:03:10.007Z,21.07
2017-12-15T00:05:38.175Z,27.03
2017-12-15T00:08:06.994Z,24.07
2017-12-15T00:10:35.072Z,21.27
2017-12-15T00:13:03.284Z,25.43
2017-12-15T00:15:31.307Z,31.40
2017-12-15T00:17:59.331Z,31.97
2017-12-15T00:20:27.528Z,39.43
2017-12-15T00:22:56.307Z,34.63
2017-12-15T00:25:25.125Z,34.80
2017-12-15T00:27:53.301Z,33.70
2017-12-15T00:30:21.939Z,32.30
2017-12-15T00:32:50.145Z,26.20
2017-12-15T00:35:19.092Z,31.63
2017-12-15T00:37:47.176Z,30.47
2017-12-15T00:40:15.194Z,27.50
2017-12-15T00:42:43.351Z,23.23
2017-12-15T00:45:11.444Z,27.13
2017-12-15T00:47:39.516Z,12.30
2017-12-15T00:50:07.719Z,19.90
2017-12-15T00:52:35.738Z,11.77
2017-12-15T00:55:03.770Z,20.70
2017-12-15T00:57:31.937Z,21.33
2017-12-15T00:59:59.975Z,22.53
2017-12-15T01:02:28.747Z,15.23
2017-12-15T01:04:56.948Z,15.90
2017-12-15T01:07:25.057Z,15.70
2017-12-15T01:09:53.180Z,14.53
2017-12-15T01:12:22.083Z,20.07
2017-12-15T01:14:50.871Z,22.93
2017-12-15T01:17:19.643Z,22.07
2017-12-15T01:19:47.815Z,14.07
2017-12-15T01:22:16.603Z,21.10
2017-12-15T01:24:44.639Z,30.53
2017-12-15T01:27:12.812Z,26.43
2017-12-15T01:29:40.823Z,17.03
2017-12-15T01:32:08.859Z,26.57
2017-12-15T01:34:37.186Z,27.13
2017-12-15T01:37:05.992Z,28.23
2017-12-15T01:39:34.056Z,17.13
2017-12-15T01:42:03.032Z,24.00
2017-12-15T01:44:31.107Z,22.30
2017-12-15T01:46:59.149Z,21.80
2017-12-15T01:49:27.294Z,23.50
2017-12-15T01:51:55.358Z,30.13
2017-12-15T01:54:23.440Z,26.27
2017-12-15T01:56:51.585Z,18.70
2017-12-15T01:59:20.397Z,30.33
2017-12-15T02:01:48.415Z,28.23
2017-12-15T02:04:16.595Z,20.60
2017-12-15T02:06:44.664Z,23.23
2017-12-15T02:09:12.724Z,21.23
2017-12-15T02:11:40.859Z,24.30
2017-12-15T02:14:08.909Z,23.63
2017-12-15T02:16:37.712Z,22.97
2017-12-15T02:19:06.589Z,30.13
2017-12-15T02:21:35.336Z,17.10
2017-12-15T02:24:03.358Z,19.60
2017-12-15T02:26:32.289Z,11.20
2017-12-15T02:29:00.356Z,14.70
2017-12-15T02:31:29.897Z,12.93
2017-12-15T02:33:58.345Z,11.17
2017-12-15T02:36:26.564Z,12.80
2017-12-15T02:38:54.638Z,15.87
2017-12-15T02:41:22.779Z,17.50
2017-12-15T02:43:50.800Z,19.67
2017-12-15T02:46:19.606Z,11.50
2017-12-15T02:48:48.641Z,23.20
2017-12-15T02:51:16.688Z,25.23
2017-12-15T02:53:44.761Z,16.17
2017-12-15T02:56:12.902Z,14.50
2017-12-15T02:58:40.979Z,19.30
2017-12-15T03:01:09.762Z,16.47
2017-12-15T03:03:38.648Z,12.10
2017-12-15T03:06:06.712Z,10.60
2017-12-15T03:08:34.780Z,10.13
2017-12-15T03:11:02.911Z,19.10
2017-12-15T03:13:30.976Z,16.67
2017-12-15T03:15:58.986Z,19.53
2017-12-15T03:18:27.119Z,10.10
2017-12-15T03:20:55.168Z,13.37
2017-12-15T03:23:23.935Z,16.27
2017-12-15T03:25:52.132Z,10.93
2017-12-15T03:28:20.930Z,22.00
2017-12-15T03:30:49.713Z,12.63
2017-12-15T03:33:18.603Z,16.80
2017-12-15T03:35:46.652Z,22.70
2017-12-15T03:38:14.815Z,12.90
2017-12-15T03:40:42.989Z,23.17
2017-12-15T03:43:11.003Z,18.83
2017-12-15T03:45:39.805Z,16.30
2017-12-15T03:48:08.730Z,14.97
2017-12-15T03:50:36.884Z,20.90
2017-12-15T03:53:05.018Z,15.83
2017-12-15T03:55:33.200Z,14.50
2017-12-15T03:58:01.219Z,15.53
2017-12-15T04:00:29.320Z,13.70
2017-12-15T04:02:57.438Z,11.60
2017-12-15T04:05:26.191Z,15.27
2017-12-15T04:07:54.301Z,14.37
2017-12-15T04:10:23.162Z,20.47
2017-12-15T04:12:51.256Z,9.10
2017-12-15T04:15:20.078Z,16.53
2017-12-15T04:17:48.230Z,11.63
2017-12-15T04:20:17.015Z,12.70
2017-12-15T04:22:45.836Z,10.63
2017-12-15T04:25:14.064Z,13.30
2017-12-15T04:27:42.900Z,13.40
2017-12-15T04:30:13.026Z,15.80
2017-12-15T04:32:44.465Z,15.10
2017-12-15T04:35:12.805Z,12.40
2017-12-15T04:37:44.569Z,11.23
2017-12-15T04:40:15.701Z,14.53
2017-12-15T04:42:43.837Z,12.13
2017-12-15T04:45:11.972Z,16.23
2017-12-15T04:47:43.079Z,20.00
2017-12-15T04:50:12.822Z,19.83
2017-12-15T04:52:41.243Z,13.70
2017-12-15T04:55:09.359Z,21.47
2017-12-15T04:57:41.184Z,17.87
2017-12-15T05:00:09.470Z,17.20
2017-12-15T05:02:39.171Z,18.47
2017-12-15T05:05:07.500Z,15.00
2017-12-15T05:07:36.336Z,16.30
2017-12-15T05:10:04.510Z,17.40
2017-12-15T05:25:30.648Z,20.70
2017-12-15T05:27:58.740Z,27.93
2017-12-15T05:30:26.844Z,18.80
2017-12-15T05:32:55.798Z,23.80
2017-12-15T05:35:23.821Z,27.30
2017-12-15T05:37:52.650Z,19.07
2017-12-15T05:40:20.935Z,28.53
2017-12-15T05:42:48.967Z,20.13
2017-12-15T05:45:17.065Z,26.43
2017-12-15T05:47:45.222Z,21.70
2017-12-15T05:50:13.276Z,26.70
2017-12-15T05:52:42.064Z,22.07
2017-12-15T05:55:10.938Z,21.30
2017-12-15T05:57:39.021Z,23.63
2017-12-15T06:00:07.034Z,32.93
2017-12-15T06:02:35.187Z,27.07
2017-12-15T06:05:04.009Z,15.20
2017-12-15T06:07:32.047Z,23.37
2017-12-15T06:10:00.922Z,16.40
2017-12-15T06:12:28.972Z,37.33
2017-12-15T06:14:57.107Z,40.80
2017-12-15T06:17:25.268Z,43.83
2017-12-15T06:19:53.337Z,42.57
2017-12-15T06:22:22.144Z,59.23
2017-12-15T06:24:50.313Z,78.73
2017-12-15T06:27:18.337Z,60.67
2017-12-15T06:29:46.389Z,58.43
2017-12-15T06:32:14.645Z,65.57
2017-12-15T06:34:42.843Z,71.20
2017-12-15T06:37:10.864Z,71.83
2017-12-15T06:39:39.060Z,74.37
2017-12-15T06:42:07.144Z,105.57
2017-12-15T06:44:35.192Z,74.83
2017-12-15T06:47:04.107Z,79.03
2017-12-15T06:49:32.146Z,70.10
2017-12-15T06:52:00.944Z,63.67
2017-12-15T06:54:29.868Z,63.10
2017-12-15T06:56:57.947Z,87.00
2017-12-15T06:59:25.966Z,57.07
2017-12-15T07:01:54.881Z,54.30
2017-12-15T07:04:22.956Z,44.47
2017-12-15T07:06:51.012Z,27.67
2017-12-15T07:09:19.883Z,31.90
2017-12-15T07:11:47.954Z,35.20
2017-12-15T07:14:16.025Z,21.00
2017-12-15T07:16:44.155Z,26.77
2017-12-15T07:19:12.166Z,24.20
2017-12-15T07:21:40.195Z,27.40
2017-12-15T07:24:08.339Z,28.93
2017-12-15T07:26:37.128Z,23.60
2017-12-15T07:29:05.946Z,27.00
2017-12-15T07:31:34.116Z,19.47
2017-12-15T07:34:02.177Z,31.47
2017-12-15T07:36:31.709Z,24.10
2017-12-15T07:39:00.024Z,29.07
2017-12-15T07:41:28.129Z,35.87
2017-12-15T07:43:56.915Z,24.40
2017-12-15T07:46:25.806Z,40.50
2017-12-15T07:48:54.575Z,34.23
2017-12-15T07:51:22.705Z,27.03
2017-12-15T07:53:50.882Z,23.20
2017-12-15T07:56:18.951Z,25.17
2017-12-15T07:58:47.024Z,28.50
2017-12-15T08:01:15.227Z,21.87
2017-12-15T08:03:43.308Z,27.50
2017-12-15T08:06:12.159Z,18.20
2017-12-15T08:08:40.311Z,27.00
2017-12-15T08:11:09.140Z,36.93
2017-12-15T08:13:37.187Z,25.03
2017-12-15T08:16:05.376Z,30.00
2017-12-15T08:18:33.439Z,17.43
2017-12-15T08:21:01.499Z,22.10
2017-12-15T08:23:30.399Z,27.67
2017-12-15T08:25:58.477Z,19.23
2017-12-15T08:28:26.541Z,18.00
2017-12-15T08:30:55.490Z,25.57
2017-12-15T08:33:23.540Z,34.20
2017-12-15T08:35:51.593Z,22.93
2017-12-15T08:38:19.809Z,19.23
2017-12-15T08:40:47.875Z,23.10
2017-12-15T08:43:15.961Z,18.47
2017-12-15T08:45:44.289Z,25.90
2017-12-15T08:48:12.598Z,29.33
2017-12-15T08:50:40.781Z,22.07
2017-12-15T08:53:08.940Z,17.93
2017-12-15T08:55:37.018Z,25.97
2017-12-15T08:58:05.108Z,25.00
2017-12-15T09:00:33.284Z,13.93
2017-12-15T09:03:01.364Z,26.20
2017-12-15T09:05:29.391Z,35.53
2017-12-15T09:07:57.571Z,27.30
2017-12-15T09:10:25.659Z,21.30
2017-12-15T09:12:53.764Z,23.23
2017-12-15T09:15:21.967Z,21.33
2017-12-15T09:17:50.800Z,27.40
2017-12-15T09:20:18.868Z,27.17
2017-12-15T09:22:47.039Z,22.97
2017-12-15T09:25:15.083Z,26.00
2017-12-15T09:27:43.896Z,25.57
2017-12-15T09:30:12.092Z,24.93
2017-12-15T09:32:40.153Z,19.60
2017-12-15T09:35:08.195Z,26.50
2017-12-15T09:37:37.098Z,31.90
2017-12-15T09:40:05.181Z,19.63
2017-12-15T09:42:33.269Z,20.47
2017-12-15T09:45:01.411Z,15.83
2017-12-15T09:47:30.332Z,17.50
2017-12-15T09:49:58.384Z,14.70
2017-12-15T09:52:26.526Z,22.73
2017-12-15T09:54:54.580Z,26.27
2017-12-15T09:57:22.632Z,18.63
2017-12-15T09:59:50.816Z,20.80
2017-12-15T10:02:18.891Z,19.07
2017-12-15T10:04:47.944Z,34.50
2017-12-15T10:07:16.102Z,19.40
2017-12-15T10:09:44.875Z,21.27
2017-12-15T10:12:12.894Z,19.93
2017-12-15T10:14:41.076Z,23.50
2017-12-15T10:17:09.129Z,25.27
2017-12-15T10:19:37.139Z,20.33
2017-12-15T10:22:05.317Z,21.03
2017-12-15T10:24:33.405Z,17.77
2017-12-15T10:27:01.545Z,16.83
2017-12-15T10:29:29.727Z,16.93
2017-12-15T10:31:57.746Z,24.03
2017-12-15T10:34:26.510Z,22.73
2017-12-15T10:36:54.643Z,31.90
2017-12-15T10:39:22.696Z,24.67
2017-12-15T10:41:51.489Z,17.83
2017-12-15T10:44:20.371Z,18.37
2017-12-15T10:46:49.176Z,24.57
2017-12-15T10:49:17.331Z,18.83
2017-12-15T10:51:46.232Z,23.80
2017-12-15T10:54:15.041Z,16.63
2017-12-15T10:56:43.089Z,17.13
2017-12-15T10:59:12.019Z,17.53
2017-12-15T11:01:40.027Z,21.17
2017-12-15T11:04:08.092Z,24.17
2017-12-15T11:06:36.257Z,17.73
2017-12-15T11:09:04.557Z,10.73
2017-12-15T11:11:33.269Z,17.37
2017-12-15T11:14:02.143Z,20.00
2017-12-15T11:16:30.217Z,15.93
2017-12-15T11:18:58.235Z,28.93
2017-12-15T11:21:26.382Z,15.40
2017-12-15T11:23:55.155Z,21.23
2017-12-15T11:26:23.175Z,17.23
2017-12-15T11:28:51.355Z,19.33
2017-12-15T11:31:19.374Z,18.53
2017-12-15T11:33:47.440Z,19.03
2017-12-15T11:36:15.645Z,22.00
2017-12-15T11:38:44.461Z,15.50
2017-12-15T11:41:12.546Z,19.27
2017-12-15T11:43:40.691Z,15.17
2017-12-15T11:46:08.790Z,17.33
2017-12-15T11:48:38.888Z,28.70
2017-12-15T11:51:14.134Z,13.97
2017-12-15T11:53:42.419Z,16.67
2017-12-15T11:56:10.537Z,17.40
2017-12-15T11:58:41.370Z,17.30
2017-12-15T12:01:09.591Z,18.00
2017-12-15T12:03:37.663Z,14.80
2017-12-15T12:06:07.852Z,16.17
2017-12-15T12:08:37.764Z,12.80
2017-12-15T12:11:07.008Z,12.30
2017-12-15T12:13:38.370Z,14.50
2017-12-15T12:16:07.623Z,19.73
2017-12-15T12:18:36.620Z,19.83
2017-12-15T12:21:05.461Z,15.77
2017-12-15T12:23:33.732Z,21.73
2017-12-15T12:26:01.821Z,20.50
2017-12-15T12:28:29.879Z,14.43
2017-12-15T12:31:01.057Z,30.07
2017-12-15T12:33:33.093Z,13.10
2017-12-15T12:36:01.329Z,15.17
2017-12-15T12:38:30.140Z,14.10
2017-12-15T12:40:58.188Z,23.77
2017-12-15T12:43:27.100Z,22.50
2017-12-15T12:45:55.944Z,12.63
2017-12-15T12:48:23.997Z,16.60
2017-12-15T12:50:52.176Z,18.80
2017-12-15T12:53:20.331Z,15.53
2017-12-15T12:55:48.385Z,22.10
2017-12-15T12:58:16.581Z,33.47
2017-12-15T13:00:44.661Z,17.40
2017-12-15T13:03:12.717Z,25.00
2017-12-15T13:05:41.039Z,13.03
2017-12-15T13:08:09.268Z,21.40
2017-12-15T13:10:37.319Z,19.73
2017-12-15T13:13:06.194Z,19.40
2017-12-15T13:15:34.225Z,24.47
2017-12-15T13:18:02.352Z,15.90
2017-12-15T13:20:30.503Z,24.20
2017-12-15T13:22:58.608Z,19.10
2017-12-15T13:25:27.371Z,26.57
2017-12-15T13:27:55.531Z,33.83
2017-12-15T13:30:23.886Z,16.40
2017-12-15T13:32:51.952Z,19.60
2017-12-15T13:35:20.114Z,18.33
2017-12-15T13:37:48.948Z,15.70
2017-12-15T13:40:17.033Z,22.43
2017-12-15T13:42:45.217Z,19.53
2017-12-15T13:45:13.375Z,16.27
2017-12-15T13:47:41.590Z,29.83
2017-12-15T13:50:10.500Z,21.17
2017-12-15T13:52:38.602Z,24.40
2017-12-15T13:55:06.759Z,25.30
2017-12-15T13:57:34.949Z,26.37
2017-12-15T14:00:03.011Z,21.20
2017-12-15T14:02:31.026Z,22.90
2017-12-15T14:04:59.158Z,26.13
2017-12-15T14:07:27.289Z,20.73
2017-12-15T14:09:55.298Z,25.43
2017-12-15T14:12:23.436Z,15.87
2017-12-15T14:14:52.202Z,18.70
2017-12-15T14:17:20.219Z,26.90
2017-12-15T14:19:49.111Z,28.57
2017-12-15T14:22:17.879Z,23.43
2017-12-15T14:24:46.655Z,21.57
2017-12-15T14:27:14.851Z,27.80
2017-12-15T14:29:43.627Z,27.87
2017-12-15T14:32:11.757Z,21.60
2017-12-15T14:34:39.952Z,21.33
2017-12-15T14:37:08.027Z,22.07
2017-12-15T14:39:36.931Z,25.83
2017-12-15T14:42:05.144Z,26.67
2017-12-15T14:44:33.914Z,21.57
2017-12-15T14:47:02.715Z,21.43
2017-12-15T14:49:31.607Z,17.40
2017-12-15T14:52:00.367Z,26.83
2017-12-15T14:54:28.395Z,22.43
2017-12-15T14:56:56.789Z,25.17
2017-12-15T14:59:24.823Z,20.43
2017-12-15T15:01:53.639Z,20.83
2017-12-15T15:04:21.816Z,24.93
2017-12-15T15:06:49.889Z,17.00
2017-12-15T15:09:17.919Z,21.57
2017-12-15T15:11:46.088Z,27.37
2017-12-15T15:14:14.325Z,25.67
2017-12-15T15:16:42.355Z,27.80
2017-12-15T15:19:11.235Z,29.43
2017-12-15T15:21:39.999Z,30.43
2017-12-15T15:24:08.031Z,33.23
2017-12-15T15:26:36.175Z,24.43
2017-12-15T15:29:04.932Z,29.07
2017-12-15T15:31:32.957Z,34.40
2017-12-15T15:34:01.144Z,29.30
2017-12-15T15:36:29.225Z,27.80
2017-12-15T15:38:57.372Z,25.00
2017-12-15T15:41:26.541Z,34.73
2017-12-15T15:43:54.827Z,21.40
2017-12-15T15:46:23.029Z,24.13
2017-12-15T15:48:52.053Z,24.87
2017-12-15T15:51:23.836Z,25.83
2017-12-15T15:53:55.103Z,33.17
2017-12-15T15:56:24.312Z,36.67
2017-12-15T15:58:53.284Z,32.47
2017-12-15T16:01:21.438Z,37.90
2017-12-15T16:03:49.734Z,21.97
2017-12-15T16:06:18.073Z,25.67
2017-12-15T16:08:46.372Z,28.73
2017-12-15T16:11:14.713Z,29.17
2017-12-15T16:13:43.556Z,22.60
2017-12-15T16:16:15.691Z,22.13
2017-12-15T16:18:47.368Z,27.27
2017-12-15T16:21:16.389Z,20.97
2017-12-15T16:23:44.571Z,17.23
2017-12-15T16:26:13.679Z,28.50
2017-12-15T16:28:48.571Z,29.47
2017-12-15T16:31:19.088Z,23.10
2017-12-15T16:33:47.445Z,22.67
2017-12-15T16:36:15.571Z,37.77
2017-12-15T16:38:43.937Z,19.13
2017-12-15T16:41:12.090Z,30.23
2017-12-15T16:43:40.197Z,17.67
2017-12-15T16:46:08.478Z,16.07
2017-12-15T16:48:36.615Z,21.70
2017-12-15T16:51:04.876Z,14.60
2017-12-15T16:53:33.291Z,26.00
2017-12-15T16:56:01.466Z,19.20
2017-12-15T16:58:29.804Z,23.33
2017-12-15T17:00:59.084Z,20.23
2017-12-15T17:03:27.363Z,23.27
2017-12-15T17:05:55.688Z,22.27
2017-12-15T17:08:24.091Z,21.00
2017-12-15T17:10:52.223Z,17.93
2017-12-15T17:13:20.267Z,15.53
2017-12-15T17:15:48.515Z,33.03
2017-12-15T17:18:16.618Z,29.67
2017-12-15T17:20:44.689Z,16.23
2017-12-15T17:23:12.903Z,16.87
2017-12-15T17:25:41.158Z,18.43
2017-12-15T17:28:10.199Z,14.83
2017-12-15T17:30:38.410Z,15.90
2017-12-15T17:33:06.555Z,15.77
2017-12-15T17:35:34.589Z,11.27
2017-12-15T17:38:03.519Z,20.10
2017-12-15T17:40:31.596Z,20.33
2017-12-15T17:42:59.643Z,31.00
2017-12-15T17:45:27.891Z,17.60
2017-12-15T17:47:56.675Z,16.30
2017-12-15T17:50:25.512Z,19.57
2017-12-15T17:52:53.690Z,12.67
2017-12-15T17:55:21.742Z,18.17
2017-12-15T17:57:49.795Z,18.53
2017-12-15T18:00:18.699Z,15.97
2017-12-15T18:02:46.867Z,14.57
2017-12-15T18:05:15.640Z,23.43
2017-12-15T18:07:44.589Z,12.87
2017-12-15T18:10:12.676Z,17.83
2017-12-15T18:12:40.710Z,25.27
2017-12-15T18:15:09.675Z,24.60
2017-12-15T18:17:38.513Z,31.30
2017-12-15T18:20:06.600Z,28.43
2017-12-15T18:22:34.759Z,11.03
2017-12-15T18:25:02.832Z,20.60
2017-12-15T18:27:30.904Z,19.00
2017-12-15T18:29:59.063Z,16.87
2017-12-15T18:32:27.148Z,17.87
2017-12-15T18:34:55.178Z,16.27
2017-12-15T18:37:24.086Z,26.77
2017-12-15T18:39:52.891Z,11.73
2017-12-15T18:42:21.008Z,26.67
2017-12-15T18:44:49.215Z,20.03
2017-12-15T18:47:17.995Z,13.37
2017-12-15T18:49:46.031Z,13.90
2017-12-15T18:52:15.055Z,24.10
2017-12-15T18:54:43.321Z,20.17
2017-12-15T18:57:11.973Z,14.67
2017-12-15T18:59:41.208Z,25.20
2017-12-15T19:02:10.163Z,18.40
2017-12-15T19:04:38.779Z,19.47
2017-12-15T19:07:07.193Z,12.10
2017-12-15T19:09:36.043Z,10.70
2017-12-15T19:12:04.573Z,18.07
2017-12-15T19:14:33.956Z,11.70
2017-12-15T19:17:02.435Z,13.33
2017-12-15T19:19:32.175Z,12.73
2017-12-15T19:22:00.650Z,14.83
2017-12-15T19:24:29.485Z,28.90
2017-12-15T19:26:58.468Z,12.13
2017-12-15T19:29:26.696Z,13.87
2017-12-15T19:31:54.952Z,17.27
2017-12-15T19:34:24.395Z,17.00
2017-12-15T19:36:54.052Z,17.37
2017-12-15T19:39:23.087Z,11.20
2017-12-15T19:41:52.133Z,9.90
2017-12-15T19:44:21.742Z,19.03
2017-12-15T19:46:50.226Z,10.87
2017-12-15T19:49:18.739Z,14.97
2017-12-15T19:51:47.124Z,18.63
2017-12-15T19:54:16.887Z,12.57
2017-12-15T19:56:45.835Z,17.03
2017-12-15T19:59:14.478Z,17.47
2017-12-15T20:01:43.345Z,13.63
2017-12-15T20:04:13.301Z,14.60
2017-12-15T20:06:42.132Z,16.33
2017-12-15T20:09:10.548Z,16.50
2017-12-15T20:11:38.916Z,15.87
2017-12-15T20:14:07.371Z,14.10
2017-12-15T20:16:35.642Z,20.53
2017-12-15T20:19:03.980Z,14.73
2017-12-15T20:21:32.768Z,17.70
2017-12-15T20:24:01.448Z,9.67
2017-12-15T20:26:29.660Z,16.60
2017-12-15T20:28:58.362Z,15.00
2017-12-15T20:31:26.489Z,13.83
2017-12-15T20:33:55.095Z,13.67
2017-12-15T20:36:23.347Z,14.40
2017-12-15T20:38:52.224Z,15.80
2017-12-15T20:41:20.526Z,11.03
2017-12-15T20:43:49.267Z,14.00
2017-12-15T20:46:17.980Z,11.93
2017-12-15T20:48:47.330Z,10.60
2017-12-15T20:51:16.115Z,31.27
2017-12-15T20:53:44.347Z,16.63
2017-12-15T20:56:13.841Z,16.37
2017-12-15T20:58:43.232Z,18.90
2017-12-15T21:01:11.385Z,12.40
2017-12-15T21:03:39.933Z,15.80
2017-12-15T21:06:08.283Z,18.93
2017-12-15T21:08:38.628Z,12.30
2017-12-15T21:11:07.713Z,25.53
2017-12-15T21:13:36.802Z,19.00
2017-12-15T21:16:05.842Z,14.07
2017-12-15T21:18:34.179Z,12.63
2017-12-15T21:21:03.251Z,14.43
2017-12-15T21:23:31.339Z,20.77
2017-12-15T21:25:59.931Z,18.27
2017-12-15T21:28:29.507Z,13.50
2017-12-15T21:31:02.021Z,15.00
2017-12-15T21:33:30.740Z,12.37
2017-12-15T21:35:59.712Z,17.57
2017-12-15T21:38:28.962Z,12.33
2017-12-15T21:40:57.263Z,12.10
2017-12-15T21:43:25.503Z,10.77
2017-12-15T21:45:54.520Z,14.23
2017-12-15T21:48:22.708Z,18.53
2017-12-15T21:50:52.416Z,13.17
2017-12-15T21:53:21.020Z,15.97
2017-12-15T21:55:50.075Z,12.60
2017-12-15T21:58:18.192Z,13.67
2017-12-15T22:00:47.004Z,15.40
2017-12-15T22:03:15.735Z,11.93
2017-12-15T22:05:44.118Z,14.20
2017-12-15T22:08:12.351Z,10.50
2017-12-15T22:10:41.294Z,10.60
2017-12-15T22:13:10.031Z,15.07
2017-12-15T22:15:38.528Z,22.03
2017-12-15T22:18:06.723Z,9.70
2017-12-15T22:20:35.379Z,18.70
2017-12-15T22:23:03.591Z,11.77
2017-12-15T22:25:32.615Z,13.47
2017-12-15T22:28:01.616Z,9.63
2017-12-15T22:30:31.046Z,10.40
2017-12-15T22:32:59.392Z,9.50
2017-12-15T22:35:27.854Z,14.20
2017-12-15T22:37:56.057Z,13.77
2017-12-15T22:40:25.452Z,8.00
2017-12-15T22:42:54.703Z,11.93
2017-12-15T22:45:23.341Z,13.27
2017-12-15T22:47:51.670Z,15.43
2017-12-15T22:50:19.710Z,12.70
2017-12-15T22:52:49.907Z,8.27
2017-12-15T22:55:18.703Z,7.20
2017-12-15T22:57:46.964Z,11.23
2017-12-15T23:00:14.999Z,9.10
2017-12-15T23:02:43.141Z,15.47
2017-12-15T23:05:11.924Z,15.23
2017-12-15T23:07:40.017Z,22.70
2017-12-15T23:10:08.947Z,14.27
2017-12-15T23:12:37.136Z,15.60
2017-12-15T23:15:05.176Z,11.40
2017-12-15T23:17:33.372Z,17.10
2017-12-15T23:20:01.404Z,6.47
2017-12-15T23:22:30.216Z,13.33
2017-12-15T23:24:58.383Z,14.10
2017-12-15T23:27:26.457Z,9.40
2017-12-15T23:29:54.499Z,11.77
2017-12-15T23:32:23.460Z,15.20
2017-12-15T23:34:51.525Z,11.73
2017-12-15T23:37:19.572Z,10.90
2017-12-15T23:39:47.812Z,15.07
2017-12-15T23:42:16.583Z,6.90
2017-12-15T23:44:44.635Z,11.80
2017-12-15T23:47:13.027Z,9.50
2017-12-15T23:49:41.231Z,13.00
2017-12-15T23:52:09.998Z,6.50
2017-12-15T23:54:49.586Z,10.47
2017-12-15T23:57:17.653Z,15.87
2017-12-15T23:59:46.456Z,10.43
